createdAt,value
2023-03-12T00:01:33.623Z,94034.47
2023-03-12T00:04:04.443Z,94042.72
2023-03-12T00:06:34.013Z,94027.91
2023-03-12T00:09:04.127Z,94044.38
2023-03-12T00:11:33.256Z,94049.38
2023-03-12T00:14:02.225Z,94049.22
2023-03-12T00:16:33.044Z,94051.81
2023-03-12T00:19:02.413Z,94054.25
2023-03-12T00:21:31.362Z,94050.63
2023-03-12T00:24:00.487Z,94052.63
2023-03-12T00:26:29.580Z,94056.84
2023-03-12T00:28:58.513Z,94051.44
2023-03-12T00:31:30.277Z,94057.47
2023-03-12T00:34:02.585Z,94072.00
2023-03-12T00:36:34.355Z,94077.22
2023-03-12T00:39:03.946Z,94065.38
2023-03-12T00:41:33.811Z,94065.22
2023-03-12T00:44:02.613Z,94076.13
2023-03-12T00:46:31.643Z,94076.91
2023-03-12T00:49:02.595Z,94075.91
2023-03-12T00:51:31.891Z,94077.91
2023-03-12T00:54:00.896Z,94081.13
2023-03-12T00:56:30.233Z,94084.69
2023-03-12T00:58:59.496Z,94070.44
2023-03-12T01:01:28.641Z,94077.69
2023-03-12T01:03:59.136Z,94081.91
2023-03-12T01:06:29.898Z,94080.69
2023-03-12T01:08:59.073Z,94083.47
2023-03-12T01:11:28.479Z,94081.84
2023-03-12T01:13:58.926Z,94085.13
2023-03-12T01:16:30.515Z,94069.38
2023-03-12T01:19:01.130Z,94076.91
2023-03-12T01:21:32.699Z,94079.88
2023-03-12T01:24:02.342Z,94082.09
2023-03-12T01:26:31.324Z,94079.13
2023-03-12T01:29:02.227Z,94068.63
2023-03-12T01:31:31.231Z,94085.16
2023-03-12T01:34:00.146Z,94089.97
2023-03-12T01:36:32.413Z,94098.03
2023-03-12T01:39:01.880Z,94095.63
2023-03-12T01:41:33.556Z,94095.56
2023-03-12T01:44:04.318Z,94105.56
2023-03-12T01:46:37.689Z,94089.53
2023-03-12T01:49:14.284Z,94098.63
2023-03-12T01:51:48.940Z,94110.25
2023-03-12T01:54:23.805Z,94112.84
2023-03-12T01:56:53.923Z,94107.78
2023-03-12T01:59:26.886Z,94113.22
2023-03-12T02:01:56.629Z,94116.44
2023-03-12T02:04:28.855Z,94121.44
2023-03-12T02:07:05.417Z,94122.81
2023-03-12T02:09:35.378Z,94122.19
2023-03-12T02:12:04.728Z,94120.41
2023-03-12T02:14:34.085Z,94127.66
2023-03-12T02:17:03.891Z,94124.44
2023-03-12T02:19:44.097Z,94125.00
2023-03-12T02:22:16.337Z,94119.16
2023-03-12T02:24:51.670Z,94120.19
2023-03-12T02:27:23.799Z,94133.63
2023-03-12T02:29:53.722Z,94126.59
2023-03-12T02:32:28.263Z,94136.31
2023-03-12T02:34:58.349Z,94139.72
2023-03-12T02:37:28.113Z,94133.31
2023-03-12T02:40:06.436Z,94139.19
2023-03-12T02:42:37.805Z,94143.41
2023-03-12T02:45:08.430Z,94142.81
2023-03-12T02:47:37.783Z,94158.31
2023-03-12T02:50:07.700Z,94152.66
2023-03-12T02:52:38.230Z,94149.84
2023-03-12T02:55:08.637Z,94154.13
2023-03-12T02:57:40.048Z,94159.97
2023-03-12T03:00:16.457Z,94157.13
2023-03-12T03:02:51.100Z,94155.53
2023-03-12T03:05:21.296Z,94149.91
2023-03-12T03:07:50.535Z,94149.13
2023-03-12T03:10:19.670Z,94163.41
2023-03-12T03:12:50.779Z,94155.56
2023-03-12T03:15:20.032Z,94166.22
2023-03-12T03:17:49.328Z,94172.81
2023-03-12T03:20:18.905Z,94160.81
2023-03-12T03:22:48.590Z,94171.25
2023-03-12T03:25:18.406Z,94167.41
2023-03-12T03:27:49.541Z,94178.09
2023-03-12T03:30:19.265Z,94170.47
2023-03-12T03:32:51.389Z,94174.25
2023-03-12T03:35:22.337Z,94176.69
2023-03-12T03:37:51.696Z,94176.31
2023-03-12T03:40:21.438Z,94170.88
2023-03-12T03:42:52.040Z,94179.28
2023-03-12T03:45:21.624Z,94194.97
2023-03-12T03:47:50.608Z,94196.19
2023-03-12T03:50:20.434Z,94200.97
2023-03-12T03:52:50.030Z,94203.59
2023-03-12T03:55:19.506Z,94207.63
2023-03-12T03:57:49.609Z,94212.63
2023-03-12T04:00:21.108Z,94215.06
2023-03-12T04:02:54.069Z,94217.47
2023-03-12T04:05:23.636Z,94208.63
2023-03-12T04:07:54.457Z,94212.84
2023-03-12T04:10:26.619Z,94222.88
2023-03-12T04:12:55.640Z,94230.72
2023-03-12T04:15:26.452Z,94231.94
2023-03-12T04:17:55.854Z,94230.13
2023-03-12T04:20:26.197Z,94240.53
2023-03-12T04:22:55.242Z,94245.97
2023-03-12T04:25:25.676Z,94247.19
2023-03-12T04:27:55.026Z,94247.78
2023-03-12T04:30:25.551Z,94248.41
2023-03-12T04:32:55.858Z,94250.59
2023-03-12T04:35:26.347Z,94266.91
2023-03-12T04:37:55.516Z,94258.44
2023-03-12T04:40:25.342Z,94264.09
2023-03-12T04:42:54.725Z,94278.94
2023-03-12T04:45:25.887Z,94267.09
2023-03-12T04:47:55.275Z,94268.47
2023-03-12T04:50:24.443Z,94270.69
2023-03-12T04:52:54.356Z,94276.34
2023-03-12T04:55:24.091Z,94290.19
2023-03-12T04:57:53.145Z,94281.34
2023-03-12T05:00:23.110Z,94290.19
2023-03-12T05:02:55.077Z,94291.78
2023-03-12T05:05:24.711Z,94289.75
2023-03-12T05:07:54.413Z,94291.56
2023-03-12T05:10:23.816Z,94309.25
2023-03-12T05:12:53.729Z,94316.28
2023-03-12T05:15:23.383Z,94322.31
2023-03-12T05:17:54.908Z,94317.25
2023-03-12T05:20:24.328Z,94327.50
2023-03-12T05:22:54.129Z,94329.31
2023-03-12T05:25:23.059Z,94336.78
2023-03-12T05:27:52.622Z,94335.97
2023-03-12T05:30:21.654Z,94331.38
2023-03-12T05:32:50.850Z,94342.88
2023-03-12T05:35:21.677Z,94343.66
2023-03-12T05:37:50.725Z,94342.47
2023-03-12T05:40:19.990Z,94356.53
2023-03-12T05:42:49.063Z,94350.47
2023-03-12T05:45:19.878Z,94357.66
2023-03-12T05:47:52.613Z,94356.63
2023-03-12T05:50:23.693Z,94369.38
2023-03-12T05:52:52.995Z,94367.19
2023-03-12T05:55:22.084Z,94372.38
2023-03-12T05:57:51.194Z,94373.59
2023-03-12T06:00:21.774Z,94377.09
2023-03-12T06:02:57.193Z,94372.59
2023-03-12T06:05:29.075Z,94388.06
2023-03-12T06:07:58.159Z,94386.72
2023-03-12T06:10:27.126Z,94389.03
2023-03-12T06:12:56.953Z,94390.19
2023-03-12T06:15:26.073Z,94405.22
2023-03-12T06:17:55.101Z,94399.94
2023-03-12T06:20:25.216Z,94392.66
2023-03-12T06:22:56.267Z,94406.34
2023-03-12T06:25:25.443Z,94416.31
2023-03-12T06:27:54.541Z,94423.25
2023-03-12T06:30:23.729Z,94433.72
2023-03-12T06:32:52.947Z,94442.28
2023-03-12T06:35:22.903Z,94436.75
2023-03-12T06:37:51.954Z,94444.38
2023-03-12T06:40:22.302Z,94445.25
2023-03-12T06:42:51.309Z,94434.94
2023-03-12T06:45:20.798Z,94442.56
2023-03-12T06:47:50.781Z,94440.78
2023-03-12T06:50:19.910Z,94461.44
2023-03-12T06:52:48.929Z,94444.91
2023-03-12T06:55:18.153Z,94443.16
2023-03-12T06:57:48.553Z,94453.41
2023-03-12T07:00:18.010Z,94456.03
2023-03-12T07:02:47.484Z,94456.31
2023-03-12T07:05:17.196Z,94456.38
2023-03-12T07:07:46.433Z,94449.53
2023-03-12T07:10:15.342Z,94458.09
2023-03-12T07:12:44.499Z,94466.59
2023-03-12T07:15:15.347Z,94477.03
2023-03-12T07:17:44.966Z,94475.22
2023-03-12T07:20:14.572Z,94478.94
2023-03-12T07:22:43.645Z,94473.59
2023-03-12T07:25:12.857Z,94484.69
2023-03-12T07:27:41.793Z,94479.47
2023-03-12T07:30:12.442Z,94479.16
2023-03-12T07:32:43.223Z,94479.25
2023-03-12T07:35:12.755Z,94488.81
2023-03-12T07:37:42.255Z,94496.16
2023-03-12T07:40:13.420Z,94481.28
2023-03-12T07:42:42.586Z,94487.13
2023-03-12T07:45:12.381Z,94493.69
2023-03-12T07:47:43.375Z,94499.63
2023-03-12T07:50:14.005Z,94490.28
2023-03-12T07:52:43.177Z,94478.84
2023-03-12T07:55:12.985Z,94483.47
2023-03-12T07:57:42.579Z,94485.97
2023-03-12T08:00:13.064Z,94491.72
2023-03-12T08:02:44.118Z,94482.09
2023-03-12T08:05:13.375Z,94484.13
2023-03-12T08:07:42.914Z,94502.13
2023-03-12T08:10:13.478Z,94492.28
2023-03-12T08:12:42.514Z,94511.16
2023-03-12T08:15:14.101Z,94500.00
2023-03-12T08:17:45.244Z,94508.63
2023-03-12T08:20:15.046Z,94515.50
2023-03-12T08:22:44.127Z,94517.69
2023-03-12T08:25:14.087Z,94522.50
2023-03-12T08:27:43.340Z,94514.78
2023-03-12T08:30:13.951Z,94512.63
2023-03-12T08:32:44.436Z,94524.47
2023-03-12T08:35:13.492Z,94523.94
2023-03-12T08:37:42.898Z,94531.31
2023-03-12T08:40:14.451Z,94529.94
2023-03-12T08:42:44.644Z,94532.75
2023-03-12T08:45:14.539Z,94539.66
2023-03-12T08:47:45.145Z,94542.72
2023-03-12T08:50:17.290Z,94531.22
2023-03-12T08:52:46.648Z,94529.09
2023-03-12T08:55:15.647Z,94528.75
2023-03-12T08:57:45.307Z,94537.66
2023-03-12T09:00:16.428Z,94542.50
2023-03-12T09:02:48.483Z,94540.63
2023-03-12T09:05:17.765Z,94550.13
2023-03-12T09:07:47.496Z,94544.38
2023-03-12T09:10:17.378Z,94530.72
2023-03-12T09:12:46.485Z,94542.00
2023-03-12T09:15:16.133Z,94539.25
2023-03-12T09:17:48.224Z,94538.69
2023-03-12T09:20:17.527Z,94544.63
2023-03-12T09:22:47.007Z,94541.41
2023-03-12T09:25:16.192Z,94540.63
2023-03-12T09:27:47.299Z,94528.34
2023-03-12T09:30:19.732Z,94535.06
2023-03-12T09:32:51.163Z,94542.22
2023-03-12T09:35:20.995Z,94546.59
2023-03-12T09:37:51.543Z,94543.13
2023-03-12T09:40:24.602Z,94528.53
2023-03-12T09:42:56.910Z,94539.44
2023-03-12T09:45:28.843Z,94547.88
2023-03-12T09:48:02.733Z,94538.03
2023-03-12T09:50:35.831Z,94537.72
2023-03-12T09:53:10.833Z,94546.28
2023-03-12T09:55:42.010Z,94534.28
2023-03-12T09:58:15.537Z,94542.03
2023-03-12T10:00:48.029Z,94536.56
2023-03-12T10:03:49.022Z,94553.13
2023-03-12T10:06:21.319Z,94545.97
2023-03-12T10:09:04.945Z,94545.94
2023-03-12T10:11:43.442Z,94543.88
2023-03-12T10:14:30.399Z,94549.28
2023-03-12T10:17:17.427Z,94541.28
2023-03-12T10:20:14.238Z,94545.31
2023-03-12T10:22:54.324Z,94528.72
2023-03-12T10:25:30.295Z,94534.94
2023-03-12T10:28:06.967Z,94541.22
2023-03-12T10:30:36.699Z,94551.97
2023-03-12T10:33:15.304Z,94550.22
2023-03-12T10:35:46.346Z,94546.44
2023-03-12T10:38:19.618Z,94551.41
2023-03-12T10:40:49.443Z,94537.94
2023-03-12T10:43:19.082Z,94533.72
2023-03-12T10:45:58.225Z,94530.44
2023-03-12T10:48:28.761Z,94532.41
2023-03-12T10:51:08.599Z,94530.41
2023-03-12T10:53:39.972Z,94530.97
2023-03-12T10:56:12.616Z,94537.22
2023-03-12T10:58:44.296Z,94528.03
2023-03-12T11:01:24.074Z,94536.97
2023-03-12T11:03:54.052Z,94537.22
2023-03-12T11:06:28.463Z,94534.94
2023-03-12T11:09:21.914Z,94529.91
2023-03-12T11:11:52.235Z,94531.69
2023-03-12T11:14:23.327Z,94516.50
2023-03-12T11:16:54.366Z,94508.53
2023-03-12T11:19:31.324Z,94520.50
2023-03-12T11:22:04.263Z,94517.03
2023-03-12T11:24:34.064Z,94525.19
2023-03-12T11:27:08.893Z,94517.13
2023-03-12T11:29:42.070Z,94528.97
2023-03-12T11:32:20.522Z,94530.06
2023-03-12T11:34:51.268Z,94521.19
2023-03-12T11:37:32.075Z,94531.00
2023-03-12T11:40:15.284Z,94521.78
2023-03-12T11:43:10.743Z,94507.22
2023-03-12T11:45:49.332Z,94490.03
2023-03-12T11:48:26.930Z,94510.34
2023-03-12T11:51:09.755Z,94513.34
2023-03-12T11:53:54.014Z,94509.78
2023-03-12T11:56:31.235Z,94500.06
2023-03-12T11:59:22.122Z,94498.00
2023-03-12T12:02:02.140Z,94493.06
2023-03-12T12:04:54.928Z,94501.78
2023-03-12T12:07:36.911Z,94500.81
2023-03-12T12:10:18.654Z,94498.59
2023-03-12T12:12:58.656Z,94508.06
2023-03-12T12:15:39.264Z,94512.09
2023-03-12T12:18:36.147Z,94506.19
2023-03-12T12:21:14.583Z,94504.28
2023-03-12T12:23:54.965Z,94505.75
2023-03-12T12:26:31.750Z,94514.19
2023-03-12T12:29:26.766Z,94509.19
2023-03-12T12:31:58.534Z,94513.81
2023-03-12T12:34:59.439Z,94516.72
2023-03-12T12:37:46.939Z,94505.66
2023-03-12T12:40:24.779Z,94501.91
2023-03-12T12:43:18.302Z,94500.25
2023-03-12T12:45:50.279Z,94508.00
2023-03-12T12:48:24.168Z,94524.47
2023-03-12T12:50:55.468Z,94515.69
2023-03-12T12:53:28.017Z,94511.94
2023-03-12T12:56:05.919Z,94513.34
2023-03-12T12:58:59.532Z,94501.31
2023-03-12T13:01:31.050Z,94499.72
2023-03-12T13:04:06.915Z,94501.63
2023-03-12T13:07:04.082Z,94502.16
2023-03-12T13:09:43.662Z,94500.34
2023-03-12T13:12:16.528Z,94506.94
2023-03-12T13:14:47.176Z,94501.84
2023-03-12T13:17:30.114Z,94504.31
2023-03-12T13:20:18.343Z,94499.91
2023-03-12T13:23:28.787Z,94499.81
2023-03-12T13:26:06.250Z,94500.53
2023-03-12T13:28:42.497Z,94512.53
2023-03-12T13:31:38.846Z,94506.81
2023-03-12T13:34:46.309Z,94508.69
2023-03-12T13:37:58.168Z,94489.56
2023-03-12T13:41:02.509Z,94498.19
2023-03-12T13:43:57.783Z,94506.94
2023-03-12T13:46:35.937Z,94508.78
2023-03-12T13:49:15.107Z,94500.91
2023-03-12T13:51:55.827Z,94508.44
2023-03-12T13:54:30.002Z,94506.19
2023-03-12T13:57:01.738Z,94523.75
2023-03-12T13:59:33.959Z,94526.38
2023-03-12T14:02:07.731Z,94537.94
2023-03-12T14:04:41.064Z,94533.97
2023-03-12T14:07:34.295Z,94530.56
2023-03-12T14:10:15.727Z,94534.56
2023-03-12T14:12:54.723Z,94529.94
2023-03-12T14:15:32.883Z,94522.69
2023-03-12T14:18:05.852Z,94529.13
2023-03-12T14:20:39.828Z,94529.44
2023-03-12T14:23:16.672Z,94538.00
2023-03-12T14:25:48.543Z,94537.38
2023-03-12T14:28:21.419Z,94536.19
2023-03-12T14:30:59.932Z,94539.78
2023-03-12T14:33:35.038Z,94544.91
2023-03-12T14:36:08.203Z,94551.91
2023-03-12T14:38:42.147Z,94546.97
2023-03-12T14:41:14.831Z,94560.63
2023-03-12T14:43:46.644Z,94556.97
2023-03-12T14:46:19.394Z,94562.94
2023-03-12T14:48:50.157Z,94556.22
2023-03-12T14:51:24.394Z,94550.34
2023-03-12T14:53:54.611Z,94551.47
2023-03-12T14:56:29.536Z,94568.03
2023-03-12T14:59:00.164Z,94567.47
2023-03-12T15:01:33.305Z,94566.75
2023-03-12T15:04:03.319Z,94572.13
2023-03-12T15:06:34.162Z,94578.25
2023-03-12T15:09:05.849Z,94586.66
2023-03-12T15:11:38.051Z,94578.34
2023-03-12T15:14:11.107Z,94591.06
2023-03-12T15:16:43.025Z,94586.97
2023-03-12T15:19:14.213Z,94588.81
2023-03-12T15:21:43.222Z,94588.69
2023-03-12T15:24:15.068Z,94591.44
2023-03-12T15:26:44.172Z,94593.88
2023-03-12T15:29:37.777Z,94595.31
2023-03-12T15:32:15.473Z,94591.00
2023-03-12T15:34:45.054Z,94605.44
2023-03-12T15:37:24.616Z,94612.09
2023-03-12T15:39:57.386Z,94613.41
2023-03-12T15:42:28.463Z,94622.94
2023-03-12T15:44:59.980Z,94617.94
2023-03-12T15:47:33.357Z,94629.06
2023-03-12T15:50:08.307Z,94636.97
2023-03-12T15:52:38.316Z,94633.13
2023-03-12T15:55:26.675Z,94627.84
2023-03-12T15:57:58.731Z,94637.78
2023-03-12T16:00:29.852Z,94638.88
2023-03-12T16:03:04.125Z,94648.59
2023-03-12T16:05:36.049Z,94650.75
2023-03-12T16:08:17.262Z,94651.56
2023-03-12T16:10:47.082Z,94664.34
2023-03-12T16:13:18.709Z,94659.75
2023-03-12T16:15:48.934Z,94666.25
2023-03-12T16:18:21.540Z,94666.72
2023-03-12T16:20:52.248Z,94669.25
2023-03-12T16:23:21.757Z,94673.31
2023-03-12T16:25:54.662Z,94678.25
2023-03-12T16:28:25.867Z,94691.88
2023-03-12T16:30:55.540Z,94700.28
2023-03-12T16:33:26.618Z,94703.19
2023-03-12T16:35:56.085Z,94705.84
2023-03-12T16:38:25.230Z,94705.91
2023-03-12T16:40:56.977Z,94719.50
2023-03-12T16:43:29.427Z,94720.97
2023-03-12T16:45:59.088Z,94721.13
2023-03-12T16:48:30.022Z,94717.72
2023-03-12T16:51:00.488Z,94727.09
2023-03-12T16:53:29.900Z,94738.50
2023-03-12T16:56:01.197Z,94741.84
2023-03-12T16:58:33.135Z,94745.28
2023-03-12T17:01:03.465Z,94747.09
2023-03-12T17:03:37.406Z,94749.88
2023-03-12T17:06:08.840Z,94753.19
2023-03-12T17:08:38.200Z,94760.72
2023-03-12T17:11:16.088Z,94771.19
2023-03-12T17:13:47.224Z,94773.81
2023-03-12T17:16:16.636Z,94779.88
2023-03-12T17:18:47.453Z,94789.78
2023-03-12T17:21:18.200Z,94794.22
2023-03-12T17:23:51.193Z,94795.47
2023-03-12T17:26:21.211Z,94810.81
2023-03-12T17:28:51.077Z,94813.78
2023-03-12T17:31:20.932Z,94823.53
2023-03-12T17:33:52.097Z,94820.06
2023-03-12T17:36:21.270Z,94821.06
2023-03-12T17:38:51.015Z,94829.38
2023-03-12T17:41:26.434Z,94825.34
2023-03-12T17:44:00.125Z,94829.97
2023-03-12T17:46:32.805Z,94832.41
2023-03-12T17:49:03.658Z,94838.53
2023-03-12T17:51:34.555Z,94842.75
2023-03-12T17:54:04.006Z,94844.00
2023-03-12T17:56:33.169Z,94846.00
2023-03-12T17:59:02.767Z,94854.47
2023-03-12T18:01:31.810Z,94855.06
2023-03-12T18:04:01.044Z,94862.75
2023-03-12T18:06:32.134Z,94859.91
2023-03-12T18:09:01.261Z,94868.03
2023-03-12T18:11:30.337Z,94871.84
2023-03-12T18:13:59.438Z,94867.78
2023-03-12T18:16:28.714Z,94873.66
2023-03-12T18:18:57.878Z,94872.03
2023-03-12T18:21:27.096Z,94877.09
2023-03-12T18:24:02.062Z,94885.97
2023-03-12T18:26:37.327Z,94880.31
2023-03-12T18:29:06.548Z,94879.72
2023-03-12T18:31:36.333Z,94886.56
2023-03-12T18:34:05.284Z,94881.50
2023-03-12T18:36:34.484Z,94886.34
2023-03-12T18:39:06.679Z,94888.75
2023-03-12T18:41:36.590Z,94894.19
2023-03-12T18:44:06.801Z,94888.13
2023-03-12T18:46:36.005Z,94899.22
2023-03-12T18:49:06.169Z,94905.69
2023-03-12T18:51:36.403Z,94909.72
2023-03-12T18:54:07.878Z,94916.97
2023-03-12T18:56:39.728Z,94918.16
2023-03-12T18:59:10.038Z,94917.72
2023-03-12T19:01:39.262Z,94921.72
2023-03-12T19:04:08.283Z,94919.31
2023-03-12T19:06:50.288Z,94934.00
2023-03-12T19:09:21.906Z,94932.72
2023-03-12T19:11:51.728Z,94936.13
2023-03-12T19:14:20.792Z,94940.88
2023-03-12T19:16:50.503Z,94931.91
2023-03-12T19:19:19.938Z,94948.63
2023-03-12T19:21:49.158Z,94956.06
2023-03-12T19:24:18.190Z,94949.56
2023-03-12T19:26:49.291Z,94948.16
2023-03-12T19:29:18.343Z,94956.97
2023-03-12T19:31:47.406Z,94962.41
2023-03-12T19:34:17.489Z,94966.66
2023-03-12T19:36:46.519Z,94961.00
2023-03-12T19:39:22.590Z,94969.78
2023-03-12T19:41:53.432Z,94987.06
2023-03-12T19:44:23.077Z,94985.00
2023-03-12T19:46:52.695Z,94983.22
2023-03-12T19:49:21.998Z,94987.19
2023-03-12T19:51:50.994Z,95001.41
2023-03-12T19:54:20.131Z,94999.19
2023-03-12T19:56:49.676Z,94991.84
2023-03-12T19:59:20.300Z,94996.84
2023-03-12T20:01:49.951Z,95001.22
2023-03-12T20:04:19.106Z,94996.53
2023-03-12T20:06:49.363Z,95005.81
2023-03-12T20:09:19.682Z,95003.56
2023-03-12T20:11:48.678Z,95015.66
2023-03-12T20:14:17.585Z,95016.47
2023-03-12T20:16:48.128Z,95021.66
2023-03-12T20:19:17.219Z,95025.06
2023-03-12T20:21:48.441Z,95029.94
2023-03-12T20:24:17.760Z,95034.78
2023-03-12T20:26:46.888Z,95035.75
2023-03-12T20:29:15.938Z,95035.53
2023-03-12T20:31:45.292Z,95029.94
2023-03-12T20:34:16.021Z,95036.59
2023-03-12T20:36:45.127Z,95045.81
2023-03-12T20:39:14.144Z,95044.25
2023-03-12T20:41:43.902Z,95046.63
2023-03-12T20:44:13.807Z,95048.84
2023-03-12T20:46:43.507Z,95048.66
2023-03-12T20:49:13.362Z,95053.03
2023-03-12T20:51:45.599Z,95052.84
2023-03-12T20:54:14.637Z,95054.38
2023-03-12T20:56:43.908Z,95056.28
2023-03-12T20:59:14.231Z,95057.66
2023-03-12T21:01:43.253Z,95055.84
2023-03-12T21:04:12.321Z,95060.38
2023-03-12T21:06:41.506Z,95060.81
2023-03-12T21:09:15.322Z,95058.13
2023-03-12T21:11:44.572Z,95057.69
2023-03-12T21:14:13.515Z,95063.03
2023-03-12T21:16:42.588Z,95064.13
2023-03-12T21:19:12.614Z,95066.72
2023-03-12T21:21:41.640Z,95064.72
2023-03-12T21:24:10.766Z,95064.25
2023-03-12T21:26:41.095Z,95070.22
2023-03-12T21:29:10.282Z,95073.91
2023-03-12T21:31:39.398Z,95070.84
2023-03-12T21:34:09.584Z,95069.91
2023-03-12T21:36:40.231Z,95070.19
2023-03-12T21:39:12.549Z,95065.31
2023-03-12T21:41:43.133Z,95065.31
2023-03-12T21:44:15.291Z,95071.72
2023-03-12T21:46:46.420Z,95079.16
2023-03-12T21:49:18.252Z,95079.00
2023-03-12T21:51:47.286Z,95071.34
2023-03-12T21:54:16.958Z,95069.78
2023-03-12T21:56:48.273Z,95075.34
2023-03-12T21:59:18.070Z,95074.75
2023-03-12T22:01:47.170Z,95073.47
2023-03-12T22:04:16.785Z,95082.44
2023-03-12T22:06:45.819Z,95076.59
2023-03-12T22:09:15.304Z,95079.75
2023-03-12T22:11:44.430Z,95077.38
2023-03-12T22:14:14.807Z,95083.22
2023-03-12T22:16:47.591Z,95091.41
2023-03-12T22:19:16.592Z,95084.84
2023-03-12T22:21:45.618Z,95087.00
2023-03-12T22:24:14.597Z,95094.44
2023-03-12T22:26:43.634Z,95096.44
2023-03-12T22:29:14.716Z,95089.88
2023-03-12T22:31:43.718Z,95088.72
2023-03-12T22:34:13.129Z,95094.28
2023-03-12T22:36:43.748Z,95090.00
2023-03-12T22:39:12.778Z,95093.47
2023-03-12T22:41:41.917Z,95089.44
2023-03-12T22:44:11.721Z,95084.56
2023-03-12T22:46:42.858Z,95089.53
2023-03-12T22:49:12.000Z,95084.66
2023-03-12T22:51:41.595Z,95086.28
2023-03-12T22:54:10.733Z,95081.13
2023-03-12T22:56:40.215Z,95090.63
2023-03-12T22:59:09.218Z,95090.50
2023-03-12T23:01:38.231Z,95089.41
2023-03-12T23:04:08.771Z,95099.03
2023-03-12T23:06:37.925Z,95105.59
2023-03-12T23:09:25.514Z,95106.31
2023-03-12T23:11:55.231Z,95100.28
2023-03-12T23:14:25.072Z,95104.19
2023-03-12T23:16:54.616Z,95099.34
2023-03-12T23:19:25.169Z,95106.19
2023-03-12T23:21:54.791Z,95101.91
2023-03-12T23:24:24.339Z,95107.13
2023-03-12T23:26:55.077Z,95106.47
2023-03-12T23:29:24.862Z,95112.00
2023-03-12T23:31:54.071Z,95121.34
2023-03-12T23:34:24.682Z,95121.38
2023-03-12T23:36:53.898Z,95120.41
2023-03-12T23:39:22.942Z,95124.47
2023-03-12T23:41:52.351Z,95111.13
2023-03-12T23:44:21.213Z,95127.09
2023-03-12T23:46:50.996Z,95128.09
2023-03-12T23:49:20.564Z,95130.03
2023-03-12T23:51:51.052Z,95137.84
2023-03-12T23:54:20.103Z,95127.59
2023-03-12T23:56:49.492Z,95128.41
2023-03-12T23:59:18.482Z,95130.38
